Time;durP1;ratioP1;P1;durP2;ratioP2;P2;SDS_P1;SDS_P2;PMS_P1;PMS_P2;Temp;Humidity;BMP_temperature;BMP_pressure;BME280_temperature;BME280_humidity;BME280_pressure;Samples;Min_cycle;Max_cycle;Signal;HPM_P1;HPM_P2
2023/12/15 00:00:58;;;;;;;70.18;66.68;;;;;;;8.90;68.49;102645.78;5031545;28;20045;-70
2023/12/15 00:03:23;;;;;;;74.50;70.60;;;;;;;8.91;68.57;102649.31;5030724;28;20092;-70
2023/12/15 00:05:49;;;;;;;65.53;62.35;;;;;;;8.90;68.43;102655.75;5045499;28;20049;-70
2023/12/15 00:08:14;;;;;;;67.28;64.10;;;;;;;8.90;68.42;102663.84;5032001;28;20045;-70
2023/12/15 00:10:39;;;;;;;66.75;63.63;;;;;;;8.89;68.54;102665.66;5024407;28;20429;-72
2023/12/15 00:13:05;;;;;;;72.63;69.28;;;;;;;8.88;68.56;102664.00;5025739;28;20040;-71
2023/12/15 00:15:30;;;;;;;72.28;68.80;;;;;;;8.88;68.40;102661.31;5033093;28;20076;-71
2023/12/15 00:17:56;;;;;;;73.90;70.10;;;;;;;8.88;68.52;102664.00;5033365;28;20044;-70
2023/12/15 00:20:21;;;;;;;70.97;67.10;;;;;;;8.87;68.58;102663.16;5031992;28;20527;-70
2023/12/15 00:22:46;;;;;;;66.53;63.40;;;;;;;8.88;68.70;102664.84;5030453;28;20045;-70
2023/12/15 00:25:12;;;;;;;78.35;74.30;;;;;;;8.89;68.51;102673.75;5030636;28;20595;-70
2023/12/15 00:27:37;;;;;;;72.47;68.88;;;;;;;8.88;68.57;102678.31;5049700;28;20029;-72
2023/12/15 00:30:03;;;;;;;71.05;67.70;;;;;;;8.89;68.62;102684.53;5030293;28;20080;-71
2023/12/15 00:32:29;;;;;;;72.60;69.05;;;;;;;8.90;68.66;102685.38;5025764;28;20146;-71
2023/12/15 00:34:54;;;;;;;70.65;67.15;;;;;;;8.90;68.81;102688.91;5047483;28;20120;-71
2023/12/15 00:37:20;;;;;;;68.95;65.53;;;;;;;8.89;68.60;102689.91;5021482;28;20116;-70
2023/12/15 00:39:47;;;;;;;72.88;69.47;;;;;;;8.88;68.70;102682.88;5022923;28;20061;-71
2023/12/15 00:42:12;;;;;;;72.28;68.30;;;;;;;8.88;68.70;102680.16;5031094;28;20507;-70
2023/12/15 00:44:37;;;;;;;70.03;66.65;;;;;;;8.88;68.58;102683.69;5019102;28;20136;-70
2023/12/15 00:47:03;;;;;;;70.90;67.32;;;;;;;8.89;68.94;102684.53;5019217;28;20029;-71
2023/12/15 00:49:28;;;;;;;74.25;70.25;;;;;;;8.91;68.49;102689.75;5022910;28;20041;-70
2023/12/15 00:51:54;;;;;;;71.63;67.95;;;;;;;8.92;68.57;102694.09;5029490;28;20041;-72
2023/12/15 00:54:19;;;;;;;71.75;68.35;;;;;;;8.92;68.51;102699.50;5035494;28;20064;-71
2023/12/15 00:56:45;;;;;;;72.70;68.68;;;;;;;8.92;68.56;102708.44;5034263;28;20458;-71
2023/12/15 00:59:10;;;;;;;69.30;65.65;;;;;;;8.92;68.49;102719.22;5048833;28;20159;-72
2023/12/15 01:01:36;;;;;;;69.60;65.72;;;;;;;8.91;68.71;102705.91;5031041;28;20451;-71
2023/12/15 01:04:01;;;;;;;71.35;67.45;;;;;;;8.91;68.62;102701.34;5031166;28;20559;-71
2023/12/15 01:06:26;;;;;;;74.22;69.55;;;;;;;8.92;68.56;102711.13;5024745;28;20033;-71
2023/12/15 01:08:52;;;;;;;67.72;64.38;;;;;;;8.92;68.53;102705.75;5029137;28;20029;-71
2023/12/15 01:11:17;;;;;;;75.00;69.63;;;;;;;8.92;68.57;102700.34;5014747;28;20068;-71
2023/12/15 01:13:43;;;;;;;74.18;69.72;;;;;;;8.92;68.58;102703.06;5034480;28;20064;-72
2023/12/15 01:16:08;;;;;;;68.38;65.07;;;;;;;8.92;68.64;102703.06;5036166;28;20107;-71
2023/12/15 01:18:34;;;;;;;70.50;66.72;;;;;;;8.92;68.52;102705.75;5015955;28;20479;-71
2023/12/15 01:20:59;;;;;;;75.57;71.57;;;;;;;8.93;68.64;102717.34;5029231;28;20459;-71
2023/12/15 01:23:24;;;;;;;70.50;66.97;;;;;;;8.92;68.55;102713.84;5030613;28;20038;-71
2023/12/15 01:25:50;;;;;;;67.07;64.00;;;;;;;8.93;68.65;102723.56;5031163;28;20045;-71
2023/12/15 01:28:15;;;;;;;72.57;68.75;;;;;;;8.92;68.71;102721.91;5060936;28;20040;-70
2023/12/15 01:30:41;;;;;;;68.53;64.90;;;;;;;8.94;68.61;102724.41;5025143;28;20033;-71
2023/12/15 01:33:06;;;;;;;69.90;66.25;;;;;;;8.93;68.48;102723.56;5036401;28;20467;-71
2023/12/15 01:35:31;;;;;;;71.75;67.43;;;;;;;8.94;68.59;102719.84;5029697;28;20116;-71
2023/12/15 01:37:57;;;;;;;75.97;72.07;;;;;;;8.93;68.42;102723.56;5018375;28;20038;-70
2023/12/15 01:40:22;;;;;;;77.80;72.82;;;;;;;8.94;68.62;102727.94;5032593;28;20389;-70
2023/12/15 01:42:47;;;;;;;74.38;70.95;;;;;;;8.93;68.65;102722.75;5038850;28;20086;-70
2023/12/15 01:45:13;;;;;;;81.90;77.15;;;;;;;8.92;68.63;102721.91;5025334;28;20489;-71
2023/12/15 01:47:39;;;;;;;69.15;65.18;;;;;;;8.93;68.58;102731.66;5032464;28;20163;-71
2023/12/15 01:50:07;;;;;;;76.43;71.72;;;;;;;8.94;68.55;102727.94;5019891;28;20381;-71
2023/12/15 01:52:33;;;;;;;73.68;70.03;;;;;;;8.94;68.59;102736.03;5030624;28;20043;-73
2023/12/15 01:54:58;;;;;;;72.43;68.53;;;;;;;8.95;68.58;102736.88;5018293;28;20397;-70
2023/12/15 01:57:23;;;;;;;67.75;64.18;;;;;;;8.96;68.33;102749.31;5032673;28;20034;-70
2023/12/15 01:59:49;;;;;;;74.05;69.80;;;;;;;8.97;68.41;102751.00;5014091;28;20401;-71
2023/12/15 02:02:18;;;;;;;76.22;72.28;;;;;;;8.97;68.45;102746.47;5029243;28;20482;-71
2023/12/15 02:04:44;;;;;;;69.72;66.22;;;;;;;8.97;68.51;102751.00;5029824;28;20063;-70
2023/12/15 02:07:10;;;;;;;72.85;68.75;;;;;;;8.97;68.54;102757.25;5025793;28;20037;-71
2023/12/15 02:09:37;;;;;;;69.72;66.47;;;;;;;8.97;68.36;102762.63;5028163;28;20531;-72
2023/12/15 02:12:03;;;;;;;73.05;69.45;;;;;;;8.97;68.59;102759.94;5019800;28;20033;-71
2023/12/15 02:14:29;;;;;;;78.15;73.55;;;;;;;8.97;68.37;102761.78;5036338;28;20087;-72
2023/12/15 02:16:54;;;;;;;72.45;68.38;;;;;;;8.98;68.39;102760.78;5035813;28;20036;-70
2023/12/15 02:19:20;;;;;;;70.53;66.95;;;;;;;8.98;68.54;102753.50;5041084;28;20037;-70
2023/12/15 02:21:45;;;;;;;73.93;69.60;;;;;;;8.98;68.40;102758.91;5025304;28;20053;-71
2023/12/15 02:24:11;;;;;;;67.88;64.55;;;;;;;8.98;68.58;102758.91;5016674;28;20037;-71
2023/12/15 02:26:36;;;;;;;71.03;66.82;;;;;;;8.98;68.68;102758.91;5030565;28;20030;-71
2023/12/15 02:29:01;;;;;;;68.03;64.93;;;;;;;8.98;68.58;102764.31;5015504;28;20041;-71
2023/12/15 02:31:27;;;;;;;66.28;63.17;;;;;;;8.98;68.40;102780.47;5012779;28;20060;-70
2023/12/15 02:33:53;;;;;;;74.15;69.60;;;;;;;8.97;68.75;102781.50;5011497;28;20034;-70
2023/12/15 02:36:22;;;;;;;74.85;70.00;;;;;;;8.98;68.58;102801.19;5017491;28;20453;-71
2023/12/15 02:38:48;;;;;;;75.95;71.50;;;;;;;8.99;68.55;102803.69;5035541;28;20029;-71
2023/12/15 02:41:14;;;;;;;77.40;72.13;;;;;;;9.01;68.47;102808.91;5035976;28;20033;-71
2023/12/15 02:43:40;;;;;;;73.75;69.47;;;;;;;9.00;68.41;102805.41;5028647;28;20099;-71
2023/12/15 02:46:05;;;;;;;74.18;69.88;;;;;;;9.02;68.64;102799.81;5029071;28;20026;-72
2023/12/15 02:48:31;;;;;;;72.63;68.47;;;;;;;9.02;68.49;102800.66;5029400;28;20052;-71
2023/12/15 02:50:57;;;;;;;71.70;67.68;;;;;;;9.01;68.76;102808.91;5034793;28;20488;-71
2023/12/15 02:53:22;;;;;;;72.32;68.63;;;;;;;9.01;68.46;102812.44;5013848;28;20042;-72
2023/12/15 02:55:47;;;;;;;67.43;63.70;;;;;;;9.02;68.66;102818.66;5016894;28;20038;-71
2023/12/15 02:58:13;;;;;;;71.45;66.97;;;;;;;9.03;68.46;102813.09;5024057;28;20034;-71
2023/12/15 03:00:38;;;;;;;72.07;68.45;;;;;;;9.04;68.54;102827.41;5025745;28;20034;-71
2023/12/15 03:03:04;;;;;;;73.78;69.75;;;;;;;9.05;68.76;102823.72;5031490;28;20120;-73
2023/12/15 03:05:30;;;;;;;76.10;71.05;;;;;;;9.05;68.49;102834.50;5032227;28;20048;-71
2023/12/15 03:07:55;;;;;;;74.75;69.85;;;;;;;9.05;68.43;102843.44;5037347;28;20397;-70
2023/12/15 03:10:20;;;;;;;71.93;67.32;;;;;;;9.05;68.62;102843.44;5037483;28;20476;-71
2023/12/15 03:12:46;;;;;;;77.55;73.20;;;;;;;9.06;68.44;102846.97;5014512;28;20049;-71
2023/12/15 03:15:11;;;;;;;75.20;71.20;;;;;;;9.05;68.47;102851.50;5016752;28;20453;-70
2023/12/15 03:17:36;;;;;;;72.45;68.57;;;;;;;9.06;68.55;102857.75;5020680;28;20034;-72
2023/12/15 03:20:03;;;;;;;72.53;68.05;;;;;;;9.04;68.64;102852.50;5000745;28;20041;-70
2023/12/15 03:22:29;;;;;;;73.85;69.07;;;;;;;9.06;68.57;102853.19;5022141;28;20057;-71
2023/12/15 03:24:55;;;;;;;74.15;69.43;;;;;;;9.06;68.43;102846.97;5029368;28;20057;-70
2023/12/15 03:27:21;;;;;;;76.63;71.13;;;;;;;9.06;68.37;102847.78;5018400;28;20121;-71
2023/12/15 03:29:46;;;;;;;74.40;69.22;;;;;;;9.06;68.65;102861.25;5015507;28;20178;-71
2023/12/15 03:32:12;;;;;;;73.45;69.43;;;;;;;9.07;68.54;102862.97;5025874;28;20049;-71
2023/12/15 03:34:37;;;;;;;75.85;70.93;;;;;;;9.08;68.52;102869.19;5024848;28;20036;-71
2023/12/15 03:37:02;;;;;;;76.03;71.25;;;;;;;9.07;68.23;102879.13;5029308;28;20107;-71
2023/12/15 03:39:28;;;;;;;80.20;73.68;;;;;;;9.08;68.69;102883.50;5023489;28;20061;-70
2023/12/15 03:41:53;;;;;;;69.10;65.68;;;;;;;9.08;68.59;102878.09;5038011;28;20029;-70
2023/12/15 03:44:19;;;;;;;75.75;70.55;;;;;;;9.08;68.52;102888.88;5019091;28;20045;-70
2023/12/15 03:46:44;;;;;;;75.25;69.70;;;;;;;9.07;68.50;102873.75;5020254;28;20038;-71
2023/12/15 03:49:09;;;;;;;64.10;60.92;;;;;;;9.07;68.46;102883.66;5031868;28;20128;-71
2023/12/15 03:51:36;;;;;;;67.38;63.72;;;;;;;9.07;68.58;102883.66;5037179;28;20401;-72
2023/12/15 03:54:01;;;;;;;74.65;69.93;;;;;;;9.07;68.57;102887.22;5039965;28;20115;-70
2023/12/15 03:56:28;;;;;;;72.75;68.53;;;;;;;9.08;68.48;102896.97;5027458;28;20069;-71
2023/12/15 03:58:53;;;;;;;78.05;71.43;;;;;;;9.08;68.76;102898.84;5029326;28;20034;-71
2023/12/15 04:01:19;;;;;;;70.28;65.97;;;;;;;9.09;68.67;102897.81;5026368;28;20048;-71
2023/12/15 04:03:44;;;;;;;69.68;65.30;;;;;;;9.08;68.56;102891.59;5027178;28;20037;-71
2023/12/15 04:06:09;;;;;;;76.55;71.75;;;;;;;9.08;68.61;102896.97;5030594;28;20030;-71
2023/12/15 04:08:35;;;;;;;71.00;66.60;;;;;;;9.09;68.67;102901.34;5032395;28;20037;-71
2023/12/15 04:11:00;;;;;;;74.30;69.15;;;;;;;9.10;68.70;102907.59;5018314;28;20100;-71
2023/12/15 04:13:26;;;;;;;74.15;69.80;;;;;;;9.12;68.48;102904.69;5018805;28;20055;-71
2023/12/15 04:15:52;;;;;;;74.20;69.40;;;;;;;9.12;68.49;102904.69;5031077;28;20030;-71
2023/12/15 04:18:17;;;;;;;69.85;65.93;;;;;;;9.13;68.47;102903.69;5019971;28;20040;-72
2023/12/15 04:20:43;;;;;;;66.75;63.15;;;;;;;9.12;68.81;102899.31;5032597;28;20034;-71
2023/12/15 04:23:08;;;;;;;71.75;67.75;;;;;;;9.12;68.65;102904.69;5033169;28;20376;-71
2023/12/15 04:25:34;;;;;;;68.35;64.82;;;;;;;9.11;68.64;102903.88;5032967;28;20124;-71
2023/12/15 04:27:59;;;;;;;79.38;73.68;;;;;;;9.14;68.58;102918.84;5028086;28;20046;-71
2023/12/15 04:30:25;;;;;;;72.55;67.95;;;;;;;9.13;68.63;102931.50;5025775;28;20501;-70
2023/12/15 04:32:50;;;;;;;71.53;67.70;;;;;;;9.13;68.65;102930.66;5025049;28;20037;-72
2023/12/15 04:35:15;;;;;;;76.93;72.20;;;;;;;9.14;68.57;102935.84;5021390;28;20446;-71
2023/12/15 04:37:46;;;;;;;73.70;69.82;;;;;;;9.14;68.57;102941.25;5023693;28;20038;-72
2023/12/15 04:40:15;;;;;;;77.28;71.55;;;;;;;9.15;68.62;102939.38;5026922;28;20038;-72
2023/12/15 04:42:40;;;;;;;74.72;70.38;;;;;;;9.13;69.00;102939.59;5025010;28;20073;-71
2023/12/15 04:45:09;;;;;;;77.93;72.07;;;;;;;9.14;68.58;102937.72;5027566;28;20068;-70
2023/12/15 04:47:35;;;;;;;76.60;71.45;;;;;;;9.14;68.81;102943.94;5032307;28;20037;-72
2023/12/15 04:50:02;;;;;;;75.68;70.97;;;;;;;9.14;68.65;102940.41;5027700;28;20461;-71
2023/12/15 04:52:27;;;;;;;77.20;71.22;;;;;;;9.13;68.83;102942.28;5021178;28;20032;-71
2023/12/15 04:54:52;;;;;;;75.97;70.53;;;;;;;9.12;68.76;102948.66;5025643;28;20117;-71
2023/12/15 04:57:18;;;;;;;75.25;69.78;;;;;;;9.13;68.77;102952.22;5024786;28;20068;-70
2023/12/15 04:59:43;;;;;;;76.80;71.50;;;;;;;9.15;68.77;102960.97;5029334;28;20456;-70
2023/12/15 05:02:09;;;;;;;82.18;76.85;;;;;;;9.15;68.82;102956.44;5031836;28;20065;-71
2023/12/15 05:04:34;;;;;;;77.03;72.18;;;;;;;9.16;68.75;102952.69;5027039;28;20474;-71
2023/12/15 05:07:03;;;;;;;79.05;74.50;;;;;;;9.16;68.73;102949.16;5018048;28;20045;-74
2023/12/15 05:09:28;;;;;;;74.53;70.13;;;;;;;9.17;68.74;102956.22;5018489;28;20042;-71
2023/12/15 05:11:54;;;;;;;80.40;74.43;;;;;;;9.18;68.59;102956.06;5029052;28;20046;-70
2023/12/15 05:14:19;;;;;;;80.78;74.88;;;;;;;9.19;68.57;102962.28;5019177;28;20033;-70
2023/12/15 05:16:45;;;;;;;74.05;69.38;;;;;;;9.19;68.75;102954.19;5033472;28;20030;-71
2023/12/15 05:19:10;;;;;;;77.03;72.15;;;;;;;9.20;68.75;102966.69;5024783;28;20476;-71
2023/12/15 05:21:36;;;;;;;81.60;76.10;;;;;;;9.20;68.70;102964.81;5031694;28;20087;-71
2023/12/15 05:24:01;;;;;;;72.60;69.00;;;;;;;9.21;68.78;102960.25;5031038;28;20029;-74
2023/12/15 05:26:27;;;;;;;71.15;67.55;;;;;;;9.18;68.70;102974.94;5032035;28;20133;-71
2023/12/15 05:28:52;;;;;;;71.80;67.97;;;;;;;9.19;68.68;102975.78;5033312;28;20087;-71
2023/12/15 05:31:18;;;;;;;69.47;66.13;;;;;;;9.17;68.88;102967.00;5021393;28;20041;-72
2023/12/15 05:33:44;;;;;;;70.22;65.97;;;;;;;9.16;69.00;102974.28;5020790;28;20087;-71
2023/12/15 05:36:20;;;;;;;73.32;69.10;;;;;;;9.17;68.91;102985.88;5027479;28;20038;-72
2023/12/15 05:38:47;;;;;;;74.88;70.00;;;;;;;9.17;68.84;102991.28;5019978;28;20045;-71
2023/12/15 05:41:13;;;;;;;75.72;71.03;;;;;;;9.18;68.81;102999.22;5018089;28;20034;-72
2023/12/15 05:43:38;;;;;;;78.63;72.50;;;;;;;9.19;68.97;103000.88;5043221;28;20056;-71
2023/12/15 05:46:04;;;;;;;79.72;74.25;;;;;;;9.22;68.86;103015.84;5033221;28;20521;-72
2023/12/15 05:48:29;;;;;;;78.32;72.97;;;;;;;9.22;68.83;103019.41;5032667;28;20439;-71
2023/12/15 05:50:55;;;;;;;79.15;72.22;;;;;;;9.24;68.82;103030.00;5032211;28;20064;-71
2023/12/15 05:53:20;;;;;;;80.50;74.70;;;;;;;9.25;68.67;103021.75;5011546;28;20038;-72
2023/12/15 05:55:46;;;;;;;73.90;68.88;;;;;;;9.26;68.75;103022.59;5015070;28;20124;-71
2023/12/15 05:58:11;;;;;;;74.05;69.20;;;;;;;9.27;68.65;103030.50;5029050;28;20082;-71
2023/12/15 06:00:37;;;;;;;75.10;69.80;;;;;;;9.27;68.59;103021.56;5030795;28;20096;-71
2023/12/15 06:03:02;;;;;;;72.65;68.40;;;;;;;9.26;68.80;103012.63;5031029;28;20065;-70
2023/12/15 06:05:28;;;;;;;78.38;73.35;;;;;;;9.27;68.75;102999.97;5018548;28;20041;-70
2023/12/15 06:07:53;;;;;;;73.97;69.82;;;;;;;9.27;68.71;103008.06;5029560;28;20440;-71
2023/12/15 06:10:19;;;;;;;75.60;70.72;;;;;;;9.27;68.74;102999.97;5031338;28;20064;-70
2023/12/15 06:12:45;;;;;;;76.47;72.28;;;;;;;9.26;68.67;103004.53;5030986;28;20091;-71
2023/12/15 06:15:10;;;;;;;79.43;73.97;;;;;;;9.27;68.83;103000.84;5030474;28;20045;-71
2023/12/15 06:17:36;;;;;;;82.75;77.38;;;;;;;9.28;68.65;103004.38;5028523;28;20037;-70
2023/12/15 06:20:01;;;;;;;72.35;68.13;;;;;;;9.29;68.67;103000.66;5024344;28;20040;-71
2023/12/15 06:22:27;;;;;;;76.32;71.20;;;;;;;9.29;68.55;103016.81;5012579;28;20521;-70
2023/12/15 06:24:52;;;;;;;78.35;72.88;;;;;;;9.29;68.58;103025.75;5015682;28;20037;-71
2023/12/15 06:27:18;;;;;;;85.05;78.95;;;;;;;9.31;68.53;103039.91;5030372;28;20465;-71
2023/12/15 06:29:43;;;;;;;74.88;69.70;;;;;;;9.31;68.71;103028.28;5031436;28;20038;-70
2023/12/15 06:32:10;;;;;;;80.03;75.25;;;;;;;9.32;68.70;103038.91;5022158;28;20459;-71
2023/12/15 06:34:37;;;;;;;80.95;75.90;;;;;;;9.32;68.62;103035.34;5030014;28;20063;-71
2023/12/15 06:37:03;;;;;;;76.97;71.28;;;;;;;9.33;68.59;103037.03;5020174;28;20056;-70
2023/12/15 06:39:28;;;;;;;82.07;76.65;;;;;;;9.32;68.74;103041.59;5017864;28;20421;-71
2023/12/15 06:41:53;;;;;;;73.07;68.15;;;;;;;9.33;68.63;103042.44;5029664;28;20436;-70
2023/12/15 06:44:19;;;;;;;70.63;66.57;;;;;;;9.33;68.60;103039.75;5015530;28;20029;-71
2023/12/15 06:46:46;;;;;;;74.00;68.95;;;;;;;9.34;68.49;103045.97;5036415;28;20092;-71
2023/12/15 06:49:11;;;;;;;85.20;78.15;;;;;;;9.33;68.45;103045.13;5022141;28;20057;-72
2023/12/15 06:51:37;;;;;;;76.05;70.90;;;;;;;9.32;68.67;103052.38;5023753;28;20038;-71
2023/12/15 06:54:02;;;;;;;74.13;69.35;;;;;;;9.35;68.73;103058.41;5020938;28;20427;-70
2023/12/15 06:56:27;;;;;;;87.10;79.15;;;;;;;9.34;68.66;103054.88;5030999;28;20501;-71
2023/12/15 06:58:53;;;;;;;78.68;72.40;;;;;;;9.35;68.55;103061.13;5016918;28;20034;-72
2023/12/15 07:01:18;;;;;;;85.18;79.25;;;;;;;9.34;68.73;103062.97;5013144;28;20116;-71
2023/12/15 07:03:44;;;;;;;80.03;74.43;;;;;;;9.34;68.42;103073.78;5026720;28;20033;-70
2023/12/15 07:06:09;;;;;;;80.70;74.78;;;;;;;9.34;68.56;103073.78;5026458;28;20083;-71
2023/12/15 07:08:34;;;;;;;73.47;68.82;;;;;;;9.34;68.65;103081.03;5012543;28;20045;-70
2023/12/15 07:11:00;;;;;;;75.43;71.15;;;;;;;9.33;68.82;103091.00;5024577;28;20042;-71
2023/12/15 07:13:25;;;;;;;78.95;73.40;;;;;;;9.34;68.71;103091.81;5013402;28;20124;-70
2023/12/15 07:15:52;;;;;;;77.32;71.97;;;;;;;9.35;68.82;103098.88;5023832;28;20041;-70
2023/12/15 07:18:18;;;;;;;79.47;73.90;;;;;;;9.35;68.65;103106.97;5035327;28;20143;-70
2023/12/15 07:20:43;;;;;;;75.20;69.55;;;;;;;9.37;68.75;103110.34;5033439;28;20483;-71
2023/12/15 07:23:08;;;;;;;75.13;70.78;;;;;;;9.37;68.62;103099.56;5035982;28;20061;-71
2023/12/15 07:25:34;;;;;;;84.03;77.35;;;;;;;9.36;68.62;103100.59;5045002;28;20603;-71
2023/12/15 07:27:59;;;;;;;72.93;69.13;;;;;;;9.36;68.71;103114.91;5029898;28;20029;-70
2023/12/15 07:30:25;;;;;;;83.85;77.47;;;;;;;9.35;68.71;103115.06;5044508;28;20037;-70
2023/12/15 07:32:50;;;;;;;78.45;73.90;;;;;;;9.35;68.59;103121.31;5038410;28;20043;-70
2023/12/15 07:35:16;;;;;;;80.10;74.55;;;;;;;9.36;68.73;103119.47;5048543;28;20119;-72
2023/12/15 07:37:42;;;;;;;81.90;76.07;;;;;;;9.37;68.54;103116.56;5009226;28;20033;-70
2023/12/15 07:40:08;;;;;;;73.53;69.32;;;;;;;9.38;68.69;103130.94;5021847;28;20045;-71
2023/12/15 07:42:33;;;;;;;80.80;74.82;;;;;;;9.39;68.59;103127.19;5036954;28;20030;-72
2023/12/15 07:44:59;;;;;;;71.55;67.50;;;;;;;9.39;68.53;103129.91;5041688;28;20029;-71
2023/12/15 07:47:24;;;;;;;82.20;75.10;;;;;;;9.37;68.61;103135.44;5033377;28;20044;-70
2023/12/15 07:49:50;;;;;;;79.03;74.63;;;;;;;9.38;68.75;103139.00;5036608;28;20529;-71
2023/12/15 07:52:15;;;;;;;72.88;68.55;;;;;;;9.38;68.58;103134.47;5026189;28;20039;-74
2023/12/15 07:54:41;;;;;;;81.63;75.63;;;;;;;9.37;68.62;103138.16;5037184;28;20153;-72
2023/12/15 07:57:06;;;;;;;74.70;70.15;;;;;;;9.37;68.69;103140.84;5038354;28;20052;-71
2023/12/15 07:59:34;;;;;;;81.32;75.60;;;;;;;9.37;68.81;103140.84;5037745;28;20512;-71
2023/12/15 08:02:00;;;;;;;74.00;69.65;;;;;;;9.39;68.62;103148.78;5044854;28;20027;-71
2023/12/15 08:04:26;;;;;;;80.18;74.95;;;;;;;9.38;68.70;103139.00;5018521;28;20034;-73
2023/12/15 08:06:51;;;;;;;73.80;69.47;;;;;;;9.40;68.48;103148.63;5028209;28;20493;-73
2023/12/15 08:09:17;;;;;;;76.72;72.13;;;;;;;9.39;68.61;103149.59;5025746;28;20172;-73
2023/12/15 08:11:42;;;;;;;79.95;75.40;;;;;;;9.41;68.52;103168.31;5034884;28;20122;-72
2023/12/15 08:14:09;;;;;;;84.53;78.00;;;;;;;9.41;68.67;103165.63;5023349;28;20065;-72
2023/12/15 08:16:34;;;;;;;82.82;77.55;;;;;;;9.42;68.49;103161.91;5022731;28;20519;-72
2023/12/15 08:19:05;;;;;;;90.15;83.35;;;;;;;9.43;68.48;103164.44;5019018;28;20117;-72
2023/12/15 08:21:31;;;;;;;80.70;75.28;;;;;;;9.45;68.73;103172.34;5029741;28;20104;-72
2023/12/15 08:23:57;;;;;;;78.00;73.43;;;;;;;9.45;68.69;103167.81;5022992;28;20045;-72
2023/12/15 08:26:25;;;;;;;79.53;74.60;;;;;;;9.45;68.59;103164.25;5026461;28;20034;-73
2023/12/15 08:28:53;;;;;;;75.00;70.50;;;;;;;9.46;68.48;103174.03;5023569;28;20034;-71
2023/12/15 08:31:19;;;;;;;78.75;74.35;;;;;;;9.45;68.61;103189.41;5033929;28;20315;-71
2023/12/15 08:33:44;;;;;;;80.13;75.13;;;;;;;9.45;68.59;103197.47;5029500;28;20033;-71
2023/12/15 08:36:10;;;;;;;78.15;73.20;;;;;;;9.46;68.78;103201.84;5023938;28;20050;-73
2023/12/15 08:38:36;;;;;;;80.63;74.80;;;;;;;9.46;68.39;103222.59;5022562;28;20091;-70
2023/12/15 08:41:02;;;;;;;81.22;76.25;;;;;;;9.47;68.59;103229.66;5022300;28;20034;-71
2023/12/15 08:43:28;;;;;;;82.57;76.30;;;;;;;9.47;68.51;103225.09;5021244;28;20053;-70
2023/12/15 08:45:53;;;;;;;83.55;77.97;;;;;;;9.47;68.64;103222.41;5018048;28;20386;-70
2023/12/15 08:48:19;;;;;;;81.85;76.55;;;;;;;9.47;68.62;103233.19;5019791;28;20034;-70
2023/12/15 08:50:44;;;;;;;77.25;72.88;;;;;;;9.47;68.54;103238.59;5045146;28;20037;-71
2023/12/15 08:53:12;;;;;;;84.05;78.20;;;;;;;9.48;68.77;103237.59;5022402;28;20038;-72
2023/12/15 08:55:37;;;;;;;81.88;76.60;;;;;;;9.48;68.66;103243.00;5023731;28;20064;-71
2023/12/15 08:58:03;;;;;;;86.28;80.20;;;;;;;9.49;68.61;103241.97;5014852;28;20406;-72
2023/12/15 09:00:28;;;;;;;80.57;75.75;;;;;;;9.50;68.59;103240.13;5036631;28;20045;-70
2023/12/15 09:02:54;;;;;;;81.78;76.05;;;;;;;9.51;68.69;103241.81;5026550;28;20029;-70
2023/12/15 09:05:23;;;;;;;88.30;83.15;;;;;;;9.51;68.69;103239.94;5038725;28;20109;-70
2023/12/15 09:07:50;;;;;;;81.88;77.28;;;;;;;9.51;68.69;103234.53;5029920;28;20482;-70
2023/12/15 09:10:16;;;;;;;82.78;77.07;;;;;;;9.49;68.58;103249.22;5023938;28;20040;-70
2023/12/15 09:12:42;;;;;;;83.40;77.15;;;;;;;9.50;68.72;103254.47;5024702;28;20049;-71
2023/12/15 09:15:07;;;;;;;82.65;77.38;;;;;;;9.50;68.69;103248.22;5031415;28;20040;-70
2023/12/15 09:17:33;;;;;;;80.07;74.53;;;;;;;9.51;68.77;103261.53;5029878;28;20033;-70
2023/12/15 09:19:58;;;;;;;89.90;84.30;;;;;;;9.52;68.62;103256.97;5034984;28;20025;-70
2023/12/15 09:22:24;;;;;;;83.05;78.03;;;;;;;9.52;68.78;103267.75;5034517;28;20091;-71
2023/12/15 09:24:49;;;;;;;79.47;74.85;;;;;;;9.52;68.71;103273.16;5021339;28;20034;-71
2023/12/15 09:27:14;;;;;;;77.47;72.85;;;;;;;9.52;68.70;103279.41;5020598;28;20095;-71
2023/12/15 09:29:40;;;;;;;83.68;79.00;;;;;;;9.52;68.78;103278.56;5020600;28;20072;-70
2023/12/15 09:32:05;;;;;;;78.80;74.05;;;;;;;9.53;68.82;103285.66;5019811;28;20065;-72
2023/12/15 09:34:30;;;;;;;83.95;78.45;;;;;;;9.54;68.84;103287.31;5032636;28;20443;-71
2023/12/15 09:36:56;;;;;;;80.68;76.07;;;;;;;9.56;68.57;103297.94;5032561;28;20195;-71
2023/12/15 09:39:22;;;;;;;86.13;80.53;;;;;;;9.56;68.66;103308.75;5022003;28;20049;-70
2023/12/15 09:41:48;;;;;;;84.55;78.22;;;;;;;9.57;68.67;103313.13;5015889;28;20394;-72
2023/12/15 09:44:15;;;;;;;82.95;77.75;;;;;;;9.56;68.70;103320.38;5015818;28;20029;-70
2023/12/15 09:46:42;;;;;;;80.90;76.28;;;;;;;9.57;68.63;103321.22;5019472;28;20672;-71
2023/12/15 09:49:10;;;;;;;80.80;75.90;;;;;;;9.57;68.53;103330.13;5020233;28;20061;-70
2023/12/15 09:51:38;;;;;;;78.38;73.32;;;;;;;9.57;68.75;103335.53;5022300;28;20116;-71
2023/12/15 09:54:04;;;;;;;81.37;76.07;;;;;;;9.58;68.63;103337.25;5038671;28;20045;-71
2023/12/15 09:56:29;;;;;;;84.35;79.68;;;;;;;9.60;68.75;103339.75;5025801;28;20041;-74
2023/12/15 09:58:55;;;;;;;79.13;73.55;;;;;;;9.61;68.71;103346.84;5012448;28;20116;-70
2023/12/15 10:01:20;;;;;;;80.35;75.38;;;;;;;9.61;68.67;103344.16;5039762;28;20128;-71
2023/12/15 10:03:46;;;;;;;75.32;71.13;;;;;;;9.61;68.60;103352.25;5036632;28;20022;-72
2023/12/15 10:06:11;;;;;;;81.28;76.65;;;;;;;9.62;68.59;103353.91;5026749;28;20449;-71
2023/12/15 10:08:41;;;;;;;80.20;74.72;;;;;;;9.63;68.66;103366.41;5036866;28;20041;-71
2023/12/15 10:11:07;;;;;;;78.38;73.05;;;;;;;9.63;68.59;103367.25;5019414;28;20124;-70
2023/12/15 10:13:32;;;;;;;81.78;76.63;;;;;;;9.63;68.72;103364.53;5029513;28;20068;-71
2023/12/15 10:15:58;;;;;;;81.63;76.55;;;;;;;9.64;68.67;103371.63;5026410;28;20116;-70
2023/12/15 10:18:24;;;;;;;80.55;76.03;;;;;;;9.66;68.58;103376.84;5011855;28;20064;-72
2023/12/15 10:20:49;;;;;;;81.40;75.50;;;;;;;9.65;68.69;103377.84;5027652;28;20046;-70
2023/12/15 10:23:15;;;;;;;78.55;73.55;;;;;;;9.67;68.92;103386.63;5019888;28;20130;-70
2023/12/15 10:25:48;;;;;;;81.90;77.22;;;;;;;9.69;68.84;103398.09;5010750;28;20109;-70
2023/12/15 10:28:15;;;;;;;79.47;74.68;;;;;;;9.68;68.49;103405.34;5024279;28;20045;-70
2023/12/15 10:30:41;;;;;;;79.75;75.10;;;;;;;9.70;68.71;103414.13;5010256;28;20062;-70
2023/12/15 10:33:07;;;;;;;77.07;72.95;;;;;;;9.69;68.79;103415.13;5020088;28;20467;-70
2023/12/15 10:35:35;;;;;;;82.72;77.20;;;;;;;9.69;68.74;103409.72;5027778;28;20052;-71
2023/12/15 10:38:01;;;;;;;75.25;71.57;;;;;;;9.70;68.69;103407.88;5030056;28;20033;-69
2023/12/15 10:40:26;;;;;;;82.70;77.32;;;;;;;9.70;68.98;103407.88;5029999;28;20033;-71
2023/12/15 10:42:52;;;;;;;82.32;77.30;;;;;;;9.70;69.07;103414.13;5028447;28;20473;-71
2023/12/15 10:45:20;;;;;;;81.07;74.90;;;;;;;9.70;68.96;103418.66;5029018;28;20129;-71
2023/12/15 10:47:48;;;;;;;79.75;74.78;;;;;;;9.71;68.94;103423.06;5014412;28;20034;-72
2023/12/15 10:50:14;;;;;;;77.95;73.50;;;;;;;9.72;69.10;103416.63;5016458;28;20064;-71
2023/12/15 10:52:40;;;;;;;81.07;76.60;;;;;;;9.71;69.04;103429.31;5013595;28;20070;-71
2023/12/15 10:55:07;;;;;;;77.50;73.47;;;;;;;9.70;69.23;103446.53;5013732;28;20045;-71
2023/12/15 10:57:32;;;;;;;72.28;68.88;;;;;;;9.69;69.52;103452.91;5028260;28;20041;-71
2023/12/15 11:00:00;;;;;;;77.68;73.68;;;;;;;9.72;69.05;103459.81;5023171;28;20121;-71
2023/12/15 11:02:31;;;;;;;80.43;75.97;;;;;;;9.73;69.28;103469.63;5010894;28;20085;-72
2023/12/15 11:04:58;;;;;;;79.25;74.40;;;;;;;9.73;69.28;103462.38;5027983;28;20033;-71
2023/12/15 11:07:24;;;;;;;80.95;75.32;;;;;;;9.75;69.33;103459.47;5010671;28;20030;-71
2023/12/15 11:09:51;;;;;;;79.85;75.10;;;;;;;9.75;69.50;103467.56;5028920;28;20041;-71